EGLC Airport Information

Runway Information
Runway 10 Length 4948 ft width 98 ft
Elevation 16 ft Threshold 358 ft Heading 93
Runway 28 Length 4948 ft Width 98 ft
Elevation 19 ft Threshold 211 ft Heading 273
Airport Frequencies
Type APP Name APP Frequency 132.7 MHZ
Type ATIS Name ATIS Frequency 136.35 MHZ
Type GND Name GND Frequency 121.825 MHZ
Type TWR Name TWR Frequency 118.075 MHZ
Airport Navaids
Type NDB Name City Frequency 322 KHZ
Airport Weather Information & NOTAM
ADDS - METARS form results

(1414 UTC 25 October 2021)
Data provider http://aviationweather.gov/metar/data/
 
METAR text: EGLC 251350Z AUTO 24008KT 190V280 9999 BKN025 BKN032 BKN042 17/11 Q1014
Conditions at: EGLC (LONDON CITY AIRP, GB) observed 1350 UTC 25 October 2021
Temperature: 17.0°C (63°F)
Dewpoint: 11.0°C (52°F) [RH = 68%]
Pressure (altimeter): 29.94 inches Hg (1014.0 mb)
Winds: from the WSW (240 degrees) at 9 MPH (8 knots; 4.1 m/s)
Visibility: 6 or more miles (10+ km)
Ceiling: 2500 feet AGL
Clouds: broken clouds at 2500 feet AGL
broken clouds at 3200 feet AGL
broken clouds at 4200 feet AGL
Weather: no significant weather observed at this time

METAR text: EGLC 251320Z AUTO 23007KT 9999 -RA FEW027/// BKN040/// //////CB 16/11 Q1014
Conditions at: EGLC (LONDON CITY AIRP, GB) observed 1320 UTC 25 October 2021
Temperature: 16.0°C (61°F)
Dewpoint: 11.0°C (52°F) [RH = 72%]
Pressure (altimeter): 29.94 inches Hg (1014.0 mb)
Winds: from the SW (230 degrees) at 8 MPH (7 knots; 3.6 m/s)
Visibility: 6 or more miles (10+ km)
Ceiling: 4000 feet AGL
Clouds: few clouds at 2700 feet AGL
broken clouds at 4000 feet AGL
Weather: -RA  (light rain)

Forecast for: EGLC (LONDON CITY AIRP, GB)
Text: TAF EGLC 251357Z 2515/2521 23008KT 9999 FEW015
Forecast period: 1500 to 2100 UTC 25 October 2021
Forecast type: FROM: standard forecast or significant change
Winds: from the SW (230 degrees) at 9 MPH (8 knots; 4.1 m/s)
Visibility: 6 or more miles (10+ km)
Ceiling: at least 12,000 feet AGL
Clouds: few clouds at 1500 feet AGL
Weather: no significant weather forecast for this period
Text: TEMPO 2515/2517 7000 SHRA
Forecast period: 1500 to 1700 UTC 25 October 2021
Forecast type: TEMPORARY: The following changes expected for less than half the time period
Visibility: 4 miles (7 km)
Ceiling: unknown
Clouds: missing
Weather: SHRA  (rain showers)
Text: PROB30
Forecast period: 1500 to 1700 UTC 25 October 2021
Forecast type: TEMPORARY: The following changes expected for less than half the time period
Visibility: 2.49 miles (4.01 km)
Ceiling: 1400 feet AGL
Clouds: broken clouds at 1400 feet AGL
Weather: +SHRA  (heavy rain showers)